White Tower, Kentucky
Current Conditions -  °F | °C
As of 9:52 AM on Saturday 25 Oct 2014 (Local Time) from KCVG Reporting Station
Overcast Overcast  
Wind Chill: 55°   Ceiling: 2700
Heat Index: 55°   Visibility: 7mi
Dew Point: 49°   Wind: 7mph
Humidity: 80%   Direction: 210°SSW
Pressure: 30"   Gusts: NA
Location:  38.9286°N, 84.5381°W
Report Text: KCVG 251352Z 21006KT 7SM BKN027 OVC037 13/09 A3000 RMK AO2 SLP156 T01280094
Loading
Personal Weather Stations






























Interactive Weather Map
Tropical Storm Tracking
New forecast layout! Learn more

10-Day Weather Forecast

Advertisements
Track Severe Weather on mobile